sensor_id;sensor_type;location;lat;lon;timestamp;P1;durP1;ratioP1;P2;durP2;ratioP2
59474;SDS011;45288;51.136;16.928;2022-07-23T00:00:08;15.13;;;11.27;;
59474;SDS011;45288;51.136;16.928;2022-07-23T00:02:33;12.75;;;11.45;;
59474;SDS011;45288;51.136;16.928;2022-07-23T00:04:59;15.17;;;11.43;;
59474;SDS011;45288;51.136;16.928;2022-07-23T00:07:25;13.93;;;11.43;;
59474;SDS011;45288;51.136;16.928;2022-07-23T00:09:50;12.93;;;10.85;;
59474;SDS011;45288;51.136;16.928;2022-07-23T00:12:16;13.43;;;11.70;;
59474;SDS011;45288;51.136;16.928;2022-07-23T00:14:42;13.77;;;11.25;;
59474;SDS011;45288;51.136;16.928;2022-07-23T00:17:07;12.57;;;11.27;;
59474;SDS011;45288;51.136;16.928;2022-07-23T00:19:34;13.55;;;11.27;;
59474;SDS011;45288;51.136;16.928;2022-07-23T00:21:59;13.00;;;11.27;;
59474;SDS011;45288;51.136;16.928;2022-07-23T00:24:25;12.63;;;11.33;;
59474;SDS011;45288;51.136;16.928;2022-07-23T00:26:51;15.57;;;12.13;;
59474;SDS011;45288;51.136;16.928;2022-07-23T00:29:17;13.73;;;11.20;;
59474;SDS011;45288;51.136;16.928;2022-07-23T00:31:42;12.02;;;10.82;;
59474;SDS011;45288;51.136;16.928;2022-07-23T00:34:08;12.55;;;10.95;;
59474;SDS011;45288;51.136;16.928;2022-07-23T00:36:33;12.97;;;11.30;;
59474;SDS011;45288;51.136;16.928;2022-07-23T00:38:59;14.50;;;11.20;;
59474;SDS011;45288;51.136;16.928;2022-07-23T00:41:25;15.90;;;11.20;;
59474;SDS011;45288;51.136;16.928;2022-07-23T00:43:51;13.83;;;10.93;;
59474;SDS011;45288;51.136;16.928;2022-07-23T00:46:20;12.50;;;10.77;;
59474;SDS011;45288;51.136;16.928;2022-07-23T00:48:46;13.65;;;10.98;;
59474;SDS011;45288;51.136;16.928;2022-07-23T00:51:12;12.13;;;10.90;;
59474;SDS011;45288;51.136;16.928;2022-07-23T00:53:37;13.88;;;11.13;;
59474;SDS011;45288;51.136;16.928;2022-07-23T00:56:03;12.90;;;11.60;;
59474;SDS011;45288;51.136;16.928;2022-07-23T00:58:29;14.10;;;11.43;;
59474;SDS011;45288;51.136;16.928;2022-07-23T01:00:55;13.47;;;11.20;;
59474;SDS011;45288;51.136;16.928;2022-07-23T01:03:21;13.77;;;11.75;;
59474;SDS011;45288;51.136;16.928;2022-07-23T01:05:47;13.85;;;11.68;;
59474;SDS011;45288;51.136;16.928;2022-07-23T01:08:14;13.80;;;11.40;;
59474;SDS011;45288;51.136;16.928;2022-07-23T01:10:40;12.68;;;11.38;;
59474;SDS011;45288;51.136;16.928;2022-07-23T01:13:07;13.35;;;11.75;;
59474;SDS011;45288;51.136;16.928;2022-07-23T01:15:34;15.02;;;12.45;;
59474;SDS011;45288;51.136;16.928;2022-07-23T01:18:00;13.48;;;11.93;;
59474;SDS011;45288;51.136;16.928;2022-07-23T01:20:26;13.40;;;12.07;;
59474;SDS011;45288;51.136;16.928;2022-07-23T01:22:53;15.93;;;13.57;;
59474;SDS011;45288;51.136;16.928;2022-07-23T01:25:19;14.00;;;12.60;;
59474;SDS011;45288;51.136;16.928;2022-07-23T01:27:53;13.97;;;12.57;;
59474;SDS011;45288;51.136;16.928;2022-07-23T01:30:19;15.50;;;12.48;;
59474;SDS011;45288;51.136;16.928;2022-07-23T01:32:46;14.95;;;12.40;;
59474;SDS011;45288;51.136;16.928;2022-07-23T01:35:12;13.75;;;12.27;;
59474;SDS011;45288;51.136;16.928;2022-07-23T01:37:38;14.23;;;12.60;;
59474;SDS011;45288;51.136;16.928;2022-07-23T01:40:05;15.50;;;12.55;;
59474;SDS011;45288;51.136;16.928;2022-07-23T01:42:31;14.40;;;12.10;;
59474;SDS011;45288;51.136;16.928;2022-07-23T01:44:57;13.67;;;12.17;;
59474;SDS011;45288;51.136;16.928;2022-07-23T01:47:23;14.45;;;12.05;;
59474;SDS011;45288;51.136;16.928;2022-07-23T01:49:52;15.35;;;13.75;;
59474;SDS011;45288;51.136;16.928;2022-07-23T01:52:36;15.67;;;13.97;;
59474;SDS011;45288;51.136;16.928;2022-07-23T01:55:02;16.00;;;13.70;;
59474;SDS011;45288;51.136;16.928;2022-07-23T01:57:27;17.57;;;14.57;;
59474;SDS011;45288;51.136;16.928;2022-07-23T01:59:53;17.13;;;15.00;;
59474;SDS011;45288;51.136;16.928;2022-07-23T02:02:20;16.75;;;14.20;;
59474;SDS011;45288;51.136;16.928;2022-07-23T02:04:46;15.57;;;13.90;;
59474;SDS011;45288;51.136;16.928;2022-07-23T02:07:11;17.40;;;14.35;;
59474;SDS011;45288;51.136;16.928;2022-07-23T02:09:37;17.77;;;14.90;;
59474;SDS011;45288;51.136;16.928;2022-07-23T02:12:03;14.63;;;13.15;;
59474;SDS011;45288;51.136;16.928;2022-07-23T02:14:28;15.57;;;13.02;;
59474;SDS011;45288;51.136;16.928;2022-07-23T02:16:55;15.03;;;12.97;;
59474;SDS011;45288;51.136;16.928;2022-07-23T02:19:21;16.02;;;14.25;;
59474;SDS011;45288;51.136;16.928;2022-07-23T02:21:47;15.77;;;14.07;;
59474;SDS011;45288;51.136;16.928;2022-07-23T02:24:12;14.60;;;13.10;;
59474;SDS011;45288;51.136;16.928;2022-07-23T02:26:40;15.77;;;14.02;;
59474;SDS011;45288;51.136;16.928;2022-07-23T02:29:07;16.27;;;13.40;;
59474;SDS011;45288;51.136;16.928;2022-07-23T02:31:32;14.55;;;13.15;;
59474;SDS011;45288;51.136;16.928;2022-07-23T02:33:58;15.40;;;13.80;;
59474;SDS011;45288;51.136;16.928;2022-07-23T02:36:24;16.15;;;13.68;;
59474;SDS011;45288;51.136;16.928;2022-07-23T02:38:51;14.50;;;12.93;;
59474;SDS011;45288;51.136;16.928;2022-07-23T02:41:17;15.80;;;12.50;;
59474;SDS011;45288;51.136;16.928;2022-07-23T02:43:43;14.23;;;12.27;;
59474;SDS011;45288;51.136;16.928;2022-07-23T02:46:12;13.98;;;12.52;;
59474;SDS011;45288;51.136;16.928;2022-07-23T02:48:38;14.25;;;12.50;;
59474;SDS011;45288;51.136;16.928;2022-07-23T02:51:04;14.02;;;12.55;;
59474;SDS011;45288;51.136;16.928;2022-07-23T02:53:36;15.15;;;12.10;;
59474;SDS011;45288;51.136;16.928;2022-07-23T02:56:02;14.17;;;12.53;;
59474;SDS011;45288;51.136;16.928;2022-07-23T02:58:28;14.30;;;12.90;;
59474;SDS011;45288;51.136;16.928;2022-07-23T03:00:53;13.67;;;12.37;;
59474;SDS011;45288;51.136;16.928;2022-07-23T03:03:19;14.20;;;12.70;;
59474;SDS011;45288;51.136;16.928;2022-07-23T03:05:45;16.60;;;14.50;;
59474;SDS011;45288;51.136;16.928;2022-07-23T03:08:11;16.08;;;14.07;;
59474;SDS011;45288;51.136;16.928;2022-07-23T03:10:39;19.38;;;15.27;;
59474;SDS011;45288;51.136;16.928;2022-07-23T03:13:05;16.25;;;14.55;;
59474;SDS011;45288;51.136;16.928;2022-07-23T03:15:31;16.77;;;13.85;;
59474;SDS011;45288;51.136;16.928;2022-07-23T03:17:58;18.83;;;15.63;;
59474;SDS011;45288;51.136;16.928;2022-07-23T03:20:24;17.48;;;15.60;;
59474;SDS011;45288;51.136;16.928;2022-07-23T03:22:49;17.58;;;15.75;;
59474;SDS011;45288;51.136;16.928;2022-07-23T03:25:16;16.83;;;14.95;;
59474;SDS011;45288;51.136;16.928;2022-07-23T03:27:42;17.02;;;14.60;;
59474;SDS011;45288;51.136;16.928;2022-07-23T03:30:09;15.52;;;14.00;;
59474;SDS011;45288;51.136;16.928;2022-07-23T03:32:35;15.73;;;13.63;;
59474;SDS011;45288;51.136;16.928;2022-07-23T03:35:01;16.00;;;13.20;;
59474;SDS011;45288;51.136;16.928;2022-07-23T03:37:26;14.18;;;12.68;;
59474;SDS011;45288;51.136;16.928;2022-07-23T03:39:56;16.08;;;13.70;;
59474;SDS011;45288;51.136;16.928;2022-07-23T03:42:21;14.60;;;13.13;;
59474;SDS011;45288;51.136;16.928;2022-07-23T03:44:47;15.70;;;13.43;;
59474;SDS011;45288;51.136;16.928;2022-07-23T03:47:13;16.03;;;13.20;;
59474;SDS011;45288;51.136;16.928;2022-07-23T03:49:38;17.00;;;13.00;;
59474;SDS011;45288;51.136;16.928;2022-07-23T03:52:04;15.98;;;13.40;;
59474;SDS011;45288;51.136;16.928;2022-07-23T03:54:30;14.70;;;12.90;;
59474;SDS011;45288;51.136;16.928;2022-07-23T03:56:56;14.25;;;12.85;;
59474;SDS011;45288;51.136;16.928;2022-07-23T03:59:21;16.88;;;13.15;;
59474;SDS011;45288;51.136;16.928;2022-07-23T04:01:47;18.73;;;13.68;;
59474;SDS011;45288;51.136;16.928;2022-07-23T04:04:13;15.10;;;13.60;;
59474;SDS011;45288;51.136;16.928;2022-07-23T04:06:40;16.73;;;13.18;;
59474;SDS011;45288;51.136;16.928;2022-07-23T04:09:06;18.40;;;13.68;;
59474;SDS011;45288;51.136;16.928;2022-07-23T04:11:32;15.43;;;12.82;;
59474;SDS011;45288;51.136;16.928;2022-07-23T04:13:58;14.40;;;12.90;;
59474;SDS011;45288;51.136;16.928;2022-07-23T04:16:24;15.15;;;12.23;;
59474;SDS011;45288;51.136;16.928;2022-07-23T04:18:50;14.45;;;12.95;;
59474;SDS011;45288;51.136;16.928;2022-07-23T04:21:19;14.98;;;12.82;;
59474;SDS011;45288;51.136;16.928;2022-07-23T04:23:46;15.15;;;12.48;;
59474;SDS011;45288;51.136;16.928;2022-07-23T04:26:13;15.48;;;12.27;;
59474;SDS011;45288;51.136;16.928;2022-07-23T04:28:39;15.27;;;12.80;;
59474;SDS011;45288;51.136;16.928;2022-07-23T04:31:04;14.73;;;13.13;;
59474;SDS011;45288;51.136;16.928;2022-07-23T04:33:31;16.08;;;12.95;;
59474;SDS011;45288;51.136;16.928;2022-07-23T04:36:00;15.77;;;13.45;;
59474;SDS011;45288;51.136;16.928;2022-07-23T04:38:26;16.33;;;13.30;;
59474;SDS011;45288;51.136;16.928;2022-07-23T04:40:56;14.80;;;13.00;;
59474;SDS011;45288;51.136;16.928;2022-07-23T04:43:21;15.27;;;13.68;;
59474;SDS011;45288;51.136;16.928;2022-07-23T04:45:49;16.97;;;14.50;;
59474;SDS011;45288;51.136;16.928;2022-07-23T04:48:15;15.23;;;13.63;;
59474;SDS011;45288;51.136;16.928;2022-07-23T04:50:42;17.67;;;14.00;;
59474;SDS011;45288;51.136;16.928;2022-07-23T04:53:15;16.00;;;13.35;;
59474;SDS011;45288;51.136;16.928;2022-07-23T04:55:41;17.77;;;12.63;;
59474;SDS011;45288;51.136;16.928;2022-07-23T04:58:07;16.90;;;13.00;;
59474;SDS011;45288;51.136;16.928;2022-07-23T05:00:33;15.97;;;12.73;;
59474;SDS011;45288;51.136;16.928;2022-07-23T05:03:01;14.32;;;12.82;;
59474;SDS011;45288;51.136;16.928;2022-07-23T05:05:26;17.52;;;13.48;;
59474;SDS011;45288;51.136;16.928;2022-07-23T05:07:57;15.27;;;12.57;;
59474;SDS011;45288;51.136;16.928;2022-07-23T05:10:24;16.17;;;13.45;;
59474;SDS011;45288;51.136;16.928;2022-07-23T05:12:49;15.40;;;12.80;;
59474;SDS011;45288;51.136;16.928;2022-07-23T05:15:15;16.15;;;12.85;;
59474;SDS011;45288;51.136;16.928;2022-07-23T05:17:41;18.40;;;12.73;;
59474;SDS011;45288;51.136;16.928;2022-07-23T05:20:12;16.50;;;12.15;;
59474;SDS011;45288;51.136;16.928;2022-07-23T05:22:39;16.30;;;12.32;;
59474;SDS011;45288;51.136;16.928;2022-07-23T05:25:05;18.90;;;12.02;;
59474;SDS011;45288;51.136;16.928;2022-07-23T05:27:31;18.23;;;12.27;;
59474;SDS011;45288;51.136;16.928;2022-07-23T05:29:57;14.00;;;11.43;;
59474;SDS011;45288;51.136;16.928;2022-07-23T05:32:23;16.33;;;11.60;;
59474;SDS011;45288;51.136;16.928;2022-07-23T05:34:58;14.17;;;10.83;;
59474;SDS011;45288;51.136;16.928;2022-07-23T05:37:25;12.95;;;10.23;;
59474;SDS011;45288;51.136;16.928;2022-07-23T05:39:51;11.30;;;10.10;;
59474;SDS011;45288;51.136;16.928;2022-07-23T05:42:17;10.83;;;9.70;;
59474;SDS011;45288;51.136;16.928;2022-07-23T05:44:43;10.88;;;8.80;;
59474;SDS011;45288;51.136;16.928;2022-07-23T05:47:09;9.80;;;8.80;;
59474;SDS011;45288;51.136;16.928;2022-07-23T05:49:35;9.43;;;8.50;;
59474;SDS011;45288;51.136;16.928;2022-07-23T05:52:20;10.82;;;8.70;;
59474;SDS011;45288;51.136;16.928;2022-07-23T05:55:15;9.38;;;8.38;;
59474;SDS011;45288;51.136;16.928;2022-07-23T05:57:41;10.07;;;8.20;;
59474;SDS011;45288;51.136;16.928;2022-07-23T06:00:07;10.18;;;8.55;;
59474;SDS011;45288;51.136;16.928;2022-07-23T06:02:39;11.18;;;9.00;;
59474;SDS011;45288;51.136;16.928;2022-07-23T06:05:06;10.80;;;8.65;;
59474;SDS011;45288;51.136;16.928;2022-07-23T06:07:33;9.43;;;8.48;;
59474;SDS011;45288;51.136;16.928;2022-07-23T06:09:59;10.75;;;8.70;;
59474;SDS011;45288;51.136;16.928;2022-07-23T06:12:25;12.07;;;8.85;;
59474;SDS011;45288;51.136;16.928;2022-07-23T06:14:51;10.48;;;9.20;;
59474;SDS011;45288;51.136;16.928;2022-07-23T06:17:18;10.07;;;9.10;;
59474;SDS011;45288;51.136;16.928;2022-07-23T06:19:43;10.25;;;9.20;;
59474;SDS011;45288;51.136;16.928;2022-07-23T06:22:09;10.43;;;9.18;;
59474;SDS011;45288;51.136;16.928;2022-07-23T06:24:35;10.55;;;9.45;;
59474;SDS011;45288;51.136;16.928;2022-07-23T06:27:01;11.35;;;9.32;;
59474;SDS011;45288;51.136;16.928;2022-07-23T06:29:27;11.38;;;9.15;;
59474;SDS011;45288;51.136;16.928;2022-07-23T06:31:52;11.90;;;9.17;;
59474;SDS011;45288;51.136;16.928;2022-07-23T06:34:18;11.27;;;9.18;;
59474;SDS011;45288;51.136;16.928;2022-07-23T06:36:44;9.82;;;8.93;;
59474;SDS011;45288;51.136;16.928;2022-07-23T06:39:09;9.90;;;8.90;;
59474;SDS011;45288;51.136;16.928;2022-07-23T06:41:36;9.93;;;8.98;;
59474;SDS011;45288;51.136;16.928;2022-07-23T06:44:02;11.55;;;8.95;;
59474;SDS011;45288;51.136;16.928;2022-07-23T06:46:30;11.55;;;9.48;;
59474;SDS011;45288;51.136;16.928;2022-07-23T06:48:56;10.47;;;9.43;;
59474;SDS011;45288;51.136;16.928;2022-07-23T06:51:21;10.52;;;9.32;;
59474;SDS011;45288;51.136;16.928;2022-07-23T06:53:47;10.10;;;9.18;;
59474;SDS011;45288;51.136;16.928;2022-07-23T06:56:13;11.13;;;9.73;;
59474;SDS011;45288;51.136;16.928;2022-07-23T06:58:39;10.75;;;9.23;;
59474;SDS011;45288;51.136;16.928;2022-07-23T07:01:05;11.50;;;9.20;;
59474;SDS011;45288;51.136;16.928;2022-07-23T07:03:31;10.68;;;9.60;;
59474;SDS011;45288;51.136;16.928;2022-07-23T07:05:56;11.10;;;9.80;;
59474;SDS011;45288;51.136;16.928;2022-07-23T07:08:23;10.70;;;9.60;;
59474;SDS011;45288;51.136;16.928;2022-07-23T07:10:48;11.90;;;9.63;;
59474;SDS011;45288;51.136;16.928;2022-07-23T07:13:15;11.50;;;9.75;;
59474;SDS011;45288;51.136;16.928;2022-07-23T07:15:41;11.75;;;10.18;;
59474;SDS011;45288;51.136;16.928;2022-07-23T07:18:06;13.10;;;10.13;;
59474;SDS011;45288;51.136;16.928;2022-07-23T07:20:32;11.83;;;9.73;;
59474;SDS011;45288;51.136;16.928;2022-07-23T07:22:58;11.30;;;10.10;;
59474;SDS011;45288;51.136;16.928;2022-07-23T07:25:24;11.13;;;9.90;;
59474;SDS011;45288;51.136;16.928;2022-07-23T07:27:50;11.77;;;10.48;;
59474;SDS011;45288;51.136;16.928;2022-07-23T07:30:15;12.13;;;9.95;;
59474;SDS011;45288;51.136;16.928;2022-07-23T07:32:41;13.50;;;10.10;;
59474;SDS011;45288;51.136;16.928;2022-07-23T07:35:08;12.43;;;10.32;;
59474;SDS011;45288;51.136;16.928;2022-07-23T07:37:34;11.35;;;10.23;;
59474;SDS011;45288;51.136;16.928;2022-07-23T07:39:59;11.60;;;10.40;;
59474;SDS011;45288;51.136;16.928;2022-07-23T07:42:25;11.70;;;10.32;;
59474;SDS011;45288;51.136;16.928;2022-07-23T07:44:50;12.20;;;10.65;;
59474;SDS011;45288;51.136;16.928;2022-07-23T07:47:16;11.33;;;10.20;;
59474;SDS011;45288;51.136;16.928;2022-07-23T07:49:42;11.90;;;10.70;;
59474;SDS011;45288;51.136;16.928;2022-07-23T07:52:08;11.88;;;10.80;;
59474;SDS011;45288;51.136;16.928;2022-07-23T07:54:34;11.52;;;10.43;;
59474;SDS011;45288;51.136;16.928;2022-07-23T07:57:00;12.10;;;10.90;;
59474;SDS011;45288;51.136;16.928;2022-07-23T07:59:26;11.75;;;10.55;;
59474;SDS011;45288;51.136;16.928;2022-07-23T08:01:51;11.82;;;10.68;;
59474;SDS011;45288;51.136;16.928;2022-07-23T08:04:17;11.70;;;10.50;;
59474;SDS011;45288;51.136;16.928;2022-07-23T08:06:43;11.77;;;10.68;;
59474;SDS011;45288;51.136;16.928;2022-07-23T08:09:08;12.40;;;11.10;;
59474;SDS011;45288;51.136;16.928;2022-07-23T08:11:34;11.77;;;10.63;;
59474;SDS011;45288;51.136;16.928;2022-07-23T08:14:00;12.35;;;11.05;;
59474;SDS011;45288;51.136;16.928;2022-07-23T08:16:26;12.13;;;10.93;;
59474;SDS011;45288;51.136;16.928;2022-07-23T08:18:52;12.45;;;10.95;;
59474;SDS011;45288;51.136;16.928;2022-07-23T08:21:17;12.07;;;10.85;;
59474;SDS011;45288;51.136;16.928;2022-07-23T08:23:43;11.73;;;10.50;;
59474;SDS011;45288;51.136;16.928;2022-07-23T08:26:09;13.52;;;10.93;;
59474;SDS011;45288;51.136;16.928;2022-07-23T08:28:35;13.75;;;10.85;;
59474;SDS011;45288;51.136;16.928;2022-07-23T08:31:01;11.93;;;10.60;;
59474;SDS011;45288;51.136;16.928;2022-07-23T08:33:26;12.00;;;10.82;;
59474;SDS011;45288;51.136;16.928;2022-07-23T08:35:52;15.53;;;10.90;;
59474;SDS011;45288;51.136;16.928;2022-07-23T08:38:19;12.98;;;11.20;;
59474;SDS011;45288;51.136;16.928;2022-07-23T08:40:47;12.05;;;10.93;;
59474;SDS011;45288;51.136;16.928;2022-07-23T08:43:19;12.00;;;10.88;;
59474;SDS011;45288;51.136;16.928;2022-07-23T08:45:46;12.52;;;11.13;;
59474;SDS011;45288;51.136;16.928;2022-07-23T08:48:15;15.40;;;11.47;;
59474;SDS011;45288;51.136;16.928;2022-07-23T08:50:42;14.50;;;11.23;;
59474;SDS011;45288;51.136;16.928;2022-07-23T08:53:08;12.33;;;11.03;;
59474;SDS011;45288;51.136;16.928;2022-07-23T08:55:34;13.73;;;11.10;;
59474;SDS011;45288;51.136;16.928;2022-07-23T08:58:00;13.10;;;11.30;;
59474;SDS011;45288;51.136;16.928;2022-07-23T09:00:26;12.82;;;11.30;;
59474;SDS011;45288;51.136;16.928;2022-07-23T09:02:52;18.90;;;11.83;;
59474;SDS011;45288;51.136;16.928;2022-07-23T09:05:19;12.98;;;11.50;;
59474;SDS011;45288;51.136;16.928;2022-07-23T09:10:29;15.85;;;11.80;;
59474;SDS011;45288;51.136;16.928;2022-07-23T09:12:56;15.70;;;11.73;;
59474;SDS011;45288;51.136;16.928;2022-07-23T09:15:22;12.60;;;11.17;;
59474;SDS011;45288;51.136;16.928;2022-07-23T09:17:47;13.27;;;11.70;;
59474;SDS011;45288;51.136;16.928;2022-07-23T09:20:15;13.32;;;12.02;;
59474;SDS011;45288;51.136;16.928;2022-07-23T09:22:45;13.30;;;11.93;;
59474;SDS011;45288;51.136;16.928;2022-07-23T09:25:15;13.18;;;11.88;;
59474;SDS011;45288;51.136;16.928;2022-07-23T09:27:52;17.10;;;12.80;;
59474;SDS011;45288;51.136;16.928;2022-07-23T09:30:19;13.93;;;12.10;;
59474;SDS011;45288;51.136;16.928;2022-07-23T09:32:44;13.00;;;11.70;;
59474;SDS011;45288;51.136;16.928;2022-07-23T09:35:44;15.82;;;11.93;;
59474;SDS011;45288;51.136;16.928;2022-07-23T09:38:09;12.90;;;11.60;;
59474;SDS011;45288;51.136;16.928;2022-07-23T09:40:35;13.15;;;11.73;;
59474;SDS011;45288;51.136;16.928;2022-07-23T09:43:01;14.10;;;11.27;;
59474;SDS011;45288;51.136;16.928;2022-07-23T09:45:26;12.70;;;11.40;;
59474;SDS011;45288;51.136;16.928;2022-07-23T09:47:55;12.20;;;10.95;;
59474;SDS011;45288;51.136;16.928;2022-07-23T09:50:35;12.52;;;11.02;;
59474;SDS011;45288;51.136;16.928;2022-07-23T09:53:00;12.50;;;10.80;;
59474;SDS011;45288;51.136;16.928;2022-07-23T09:55:30;12.70;;;11.40;;
59474;SDS011;45288;51.136;16.928;2022-07-23T09:58:00;11.75;;;10.65;;
59474;SDS011;45288;51.136;16.928;2022-07-23T10:00:26;11.55;;;10.38;;
59474;SDS011;45288;51.136;16.928;2022-07-23T10:02:52;11.63;;;10.50;;
59474;SDS011;45288;51.136;16.928;2022-07-23T10:05:27;11.98;;;10.45;;
59474;SDS011;45288;51.136;16.928;2022-07-23T10:07:56;11.27;;;10.05;;
59474;SDS011;45288;51.136;16.928;2022-07-23T10:10:41;11.68;;;10.07;;
59474;SDS011;45288;51.136;16.928;2022-07-23T10:13:23;12.90;;;10.18;;
59474;SDS011;45288;51.136;16.928;2022-07-23T10:16:09;15.05;;;9.98;;
59474;SDS011;45288;51.136;16.928;2022-07-23T10:18:35;10.68;;;9.45;;
59474;SDS011;45288;51.136;16.928;2022-07-23T10:21:02;11.50;;;9.93;;
59474;SDS011;45288;51.136;16.928;2022-07-23T10:23:33;13.43;;;10.57;;
59474;SDS011;45288;51.136;16.928;2022-07-23T10:26:11;14.90;;;11.00;;
59474;SDS011;45288;51.136;16.928;2022-07-23T10:28:59;16.88;;;11.25;;
59474;SDS011;45288;51.136;16.928;2022-07-23T10:39:27;13.82;;;11.00;;
59474;SDS011;45288;51.136;16.928;2022-07-23T10:42:07;14.50;;;11.55;;
59474;SDS011;45288;51.136;16.928;2022-07-23T10:44:37;16.02;;;11.27;;
59474;SDS011;45288;51.136;16.928;2022-07-23T10:47:04;14.30;;;11.38;;
59474;SDS011;45288;51.136;16.928;2022-07-23T10:49:53;14.23;;;12.70;;
59474;SDS011;45288;51.136;16.928;2022-07-23T10:52:25;16.80;;;12.87;;
59474;SDS011;45288;51.136;16.928;2022-07-23T10:57:18;15.57;;;12.83;;
59474;SDS011;45288;51.136;16.928;2022-07-23T11:02:38;18.87;;;14.07;;
59474;SDS011;45288;51.136;16.928;2022-07-23T11:05:05;17.10;;;13.65;;
59474;SDS011;45288;51.136;16.928;2022-07-23T11:07:31;18.20;;;13.13;;
59474;SDS011;45288;51.136;16.928;2022-07-23T11:09:56;15.05;;;12.25;;
59474;SDS011;45288;51.136;16.928;2022-07-23T11:15:07;19.20;;;13.13;;
59474;SDS011;45288;51.136;16.928;2022-07-23T11:17:34;16.17;;;12.55;;
59474;SDS011;45288;51.136;16.928;2022-07-23T11:22:35;14.40;;;12.93;;
59474;SDS011;45288;51.136;16.928;2022-07-23T11:25:00;18.20;;;12.65;;
59474;SDS011;45288;51.136;16.928;2022-07-23T11:27:39;15.70;;;12.07;;
59474;SDS011;45288;51.136;16.928;2022-07-23T11:30:05;14.60;;;12.23;;
59474;SDS011;45288;51.136;16.928;2022-07-23T11:32:39;14.82;;;12.38;;
59474;SDS011;45288;51.136;16.928;2022-07-23T11:37:51;14.70;;;12.60;;
59474;SDS011;45288;51.136;16.928;2022-07-23T11:40:19;13.43;;;12.05;;
59474;SDS011;45288;51.136;16.928;2022-07-23T11:42:52;13.88;;;12.48;;
59474;SDS011;45288;51.136;16.928;2022-07-23T11:45:19;14.98;;;13.48;;
59474;SDS011;45288;51.136;16.928;2022-07-23T11:47:44;15.95;;;12.50;;
59474;SDS011;45288;51.136;16.928;2022-07-23T11:50:10;15.05;;;13.25;;
59474;SDS011;45288;51.136;16.928;2022-07-23T11:52:36;16.13;;;13.45;;
59474;SDS011;45288;51.136;16.928;2022-07-23T11:55:06;14.80;;;13.10;;
59474;SDS011;45288;51.136;16.928;2022-07-23T11:57:33;15.07;;;13.50;;
59474;SDS011;45288;51.136;16.928;2022-07-23T12:02:38;14.80;;;13.20;;
59474;SDS011;45288;51.136;16.928;2022-07-23T12:05:04;15.48;;;13.40;;
59474;SDS011;45288;51.136;16.928;2022-07-23T12:07:37;15.77;;;13.45;;
59474;SDS011;45288;51.136;16.928;2022-07-23T12:13:03;15.10;;;13.00;;
59474;SDS011;45288;51.136;16.928;2022-07-23T12:17:57;16.65;;;14.10;;
59474;SDS011;45288;51.136;16.928;2022-07-23T12:20:23;14.40;;;13.00;;
59474;SDS011;45288;51.136;16.928;2022-07-23T12:22:51;16.92;;;14.50;;
59474;SDS011;45288;51.136;16.928;2022-07-23T12:25:18;15.17;;;13.63;;
59474;SDS011;45288;51.136;16.928;2022-07-23T12:27:44;14.90;;;13.15;;
59474;SDS011;45288;51.136;16.928;2022-07-23T12:30:21;15.90;;;14.27;;
59474;SDS011;45288;51.136;16.928;2022-07-23T12:32:47;15.43;;;13.23;;
59474;SDS011;45288;51.136;16.928;2022-07-23T12:35:13;15.67;;;13.90;;
59474;SDS011;45288;51.136;16.928;2022-07-23T12:37:40;15.30;;;13.35;;
59474;SDS011;45288;51.136;16.928;2022-07-23T12:42:51;14.40;;;12.80;;
59474;SDS011;45288;51.136;16.928;2022-07-23T12:45:17;13.82;;;12.45;;
59474;SDS011;45288;51.136;16.928;2022-07-23T12:50:47;14.63;;;13.25;;
59474;SDS011;45288;51.136;16.928;2022-07-23T12:53:15;14.52;;;13.07;;
59474;SDS011;45288;51.136;16.928;2022-07-23T12:55:41;14.90;;;13.55;;
59474;SDS011;45288;51.136;16.928;2022-07-23T12:58:15;14.48;;;13.02;;
59474;SDS011;45288;51.136;16.928;2022-07-23T13:06:17;18.77;;;13.80;;
59474;SDS011;45288;51.136;16.928;2022-07-23T13:08:43;15.93;;;13.47;;
59474;SDS011;45288;51.136;16.928;2022-07-23T13:11:08;14.90;;;13.30;;
59474;SDS011;45288;51.136;16.928;2022-07-23T13:13:34;15.27;;;13.77;;
59474;SDS011;45288;51.136;16.928;2022-07-23T13:16:00;16.50;;;13.70;;
59474;SDS011;45288;51.136;16.928;2022-07-23T13:18:27;14.87;;;13.47;;
59474;SDS011;45288;51.136;16.928;2022-07-23T13:20:53;15.90;;;14.20;;
59474;SDS011;45288;51.136;16.928;2022-07-23T13:23:19;15.40;;;14.00;;
59474;SDS011;45288;51.136;16.928;2022-07-23T13:25:45;16.23;;;14.60;;
59474;SDS011;45288;51.136;16.928;2022-07-23T13:28:11;15.80;;;14.23;;
59474;SDS011;45288;51.136;16.928;2022-07-23T13:30:38;17.38;;;14.35;;
59474;SDS011;45288;51.136;16.928;2022-07-23T13:33:04;16.67;;;14.90;;
59474;SDS011;45288;51.136;16.928;2022-07-23T13:35:30;16.65;;;14.60;;
59474;SDS011;45288;51.136;16.928;2022-07-23T13:37:56;15.88;;;14.25;;
59474;SDS011;45288;51.136;16.928;2022-07-23T13:40:22;15.35;;;13.77;;
59474;SDS011;45288;51.136;16.928;2022-07-23T13:42:48;15.00;;;13.13;;
59474;SDS011;45288;51.136;16.928;2022-07-23T13:45:13;15.98;;;14.48;;
59474;SDS011;45288;51.136;16.928;2022-07-23T13:47:39;15.93;;;14.32;;
59474;SDS011;45288;51.136;16.928;2022-07-23T13:50:05;14.73;;;13.30;;
59474;SDS011;45288;51.136;16.928;2022-07-23T13:52:31;15.63;;;14.02;;
59474;SDS011;45288;51.136;16.928;2022-07-23T13:55:00;14.10;;;12.67;;
59474;SDS011;45288;51.136;16.928;2022-07-23T13:57:26;14.68;;;13.20;;
59474;SDS011;45288;51.136;16.928;2022-07-23T13:59:51;15.07;;;13.07;;
59474;SDS011;45288;51.136;16.928;2022-07-23T14:02:17;15.37;;;13.80;;
59474;SDS011;45288;51.136;16.928;2022-07-23T14:04:43;14.50;;;13.10;;
59474;SDS011;45288;51.136;16.928;2022-07-23T14:07:09;14.75;;;13.15;;
59474;SDS011;45288;51.136;16.928;2022-07-23T14:09:35;14.80;;;13.40;;
59474;SDS011;45288;51.136;16.928;2022-07-23T14:12:01;15.40;;;13.80;;
59474;SDS011;45288;51.136;16.928;2022-07-23T14:14:27;14.82;;;12.82;;
59474;SDS011;45288;51.136;16.928;2022-07-23T14:16:52;14.53;;;13.27;;
59474;SDS011;45288;51.136;16.928;2022-07-23T14:19:18;14.20;;;12.80;;
59474;SDS011;45288;51.136;16.928;2022-07-23T14:21:44;14.52;;;13.10;;
59474;SDS011;45288;51.136;16.928;2022-07-23T14:24:09;14.07;;;12.57;;
59474;SDS011;45288;51.136;16.928;2022-07-23T14:26:35;14.23;;;12.97;;
59474;SDS011;45288;51.136;16.928;2022-07-23T14:29:01;14.27;;;12.73;;
59474;SDS011;45288;51.136;16.928;2022-07-23T14:31:27;14.40;;;13.00;;
59474;SDS011;45288;51.136;16.928;2022-07-23T14:33:52;14.03;;;12.63;;
59474;SDS011;45288;51.136;16.928;2022-07-23T14:36:18;13.87;;;12.53;;
59474;SDS011;45288;51.136;16.928;2022-07-23T14:38:43;13.83;;;12.53;;
59474;SDS011;45288;51.136;16.928;2022-07-23T14:41:09;14.15;;;12.75;;
59474;SDS011;45288;51.136;16.928;2022-07-23T14:43:36;13.63;;;12.32;;
59474;SDS011;45288;51.136;16.928;2022-07-23T14:46:02;13.55;;;12.18;;
59474;SDS011;45288;51.136;16.928;2022-07-23T14:48:28;13.33;;;12.13;;
59474;SDS011;45288;51.136;16.928;2022-07-23T14:50:53;13.80;;;12.20;;
59474;SDS011;45288;51.136;16.928;2022-07-23T14:53:19;13.98;;;12.68;;